createdAt,value
2018-12-10T00:01:02.522Z,6.10
2018-12-10T00:02:06.981Z,6.00
2018-12-10T00:03:15.277Z,6.10
2018-12-10T00:04:17.785Z,6.00
2018-12-10T00:05:20.293Z,6.10
2018-12-10T00:06:22.852Z,6.10
2018-12-10T00:07:25.359Z,6.00
2018-12-10T00:08:27.893Z,5.90
2018-12-10T00:09:30.390Z,5.90
2018-12-10T00:10:32.893Z,5.90
2018-12-10T00:11:35.397Z,5.90
2018-12-10T00:12:37.901Z,5.80
2018-12-10T00:13:40.492Z,5.80
2018-12-10T00:14:42.991Z,5.80
2018-12-10T00:15:45.493Z,5.80
2018-12-10T00:16:48.002Z,5.80
2018-12-10T00:17:50.505Z,5.80
2018-12-10T00:18:53.045Z,5.80
2018-12-10T00:19:55.544Z,5.80
2018-12-10T00:20:58.053Z,5.90
2018-12-10T00:22:00.609Z,5.90
2018-12-10T00:23:03.120Z,5.90
2018-12-10T00:24:05.653Z,5.90
2018-12-10T00:25:08.156Z,5.90
2018-12-10T00:26:10.653Z,5.90
2018-12-10T00:27:13.171Z,5.90
2018-12-10T00:28:15.666Z,6.00
2018-12-10T00:29:18.189Z,6.00
2018-12-10T00:30:20.695Z,6.00
2018-12-10T00:31:23.213Z,5.90
2018-12-10T00:32:25.742Z,6.00
2018-12-10T00:33:28.246Z,6.00
2018-12-10T00:34:30.746Z,6.00
2018-12-10T00:35:33.246Z,6.00
2018-12-10T00:36:35.751Z,5.90
2018-12-10T00:37:38.303Z,5.90
2018-12-10T00:38:40.805Z,5.90
2018-12-10T00:39:43.313Z,6.00
2018-12-10T00:40:45.817Z,6.00
2018-12-10T00:41:48.318Z,5.90
2018-12-10T00:42:50.865Z,5.90
2018-12-10T00:43:53.373Z,6.00
2018-12-10T00:44:55.927Z,6.00
2018-12-10T00:45:58.438Z,6.00
2018-12-10T00:47:00.953Z,6.00
2018-12-10T00:48:03.501Z,6.00
2018-12-10T00:49:05.996Z,6.00
2018-12-10T00:50:08.497Z,6.00
2018-12-10T00:51:11.040Z,6.00
2018-12-10T00:52:13.537Z,5.90
2018-12-10T00:53:16.044Z,5.90
2018-12-10T00:54:18.600Z,6.00
2018-12-10T00:55:21.158Z,5.90
2018-12-10T00:56:23.661Z,5.90
2018-12-10T00:57:26.161Z,5.90
2018-12-10T00:58:28.786Z,5.90
2018-12-10T00:59:31.325Z,5.90
2018-12-10T01:00:33.873Z,5.90
2018-12-10T01:01:36.430Z,5.90
2018-12-10T01:02:38.933Z,6.00
2018-12-10T01:03:41.481Z,5.90
2018-12-10T01:04:44.048Z,6.00
2018-12-10T01:05:46.561Z,6.00
2018-12-10T01:06:49.077Z,6.00
2018-12-10T01:07:51.583Z,6.00
2018-12-10T01:08:54.117Z,6.10
2018-12-10T01:09:56.618Z,6.10
2018-12-10T01:10:59.149Z,6.00
2018-12-10T01:12:01.654Z,6.00
2018-12-10T01:13:04.242Z,6.00
2018-12-10T01:14:06.802Z,6.00
2018-12-10T01:15:09.302Z,6.00
2018-12-10T01:16:11.870Z,6.00
2018-12-10T01:17:14.375Z,6.00
2018-12-10T01:18:16.881Z,6.00
2018-12-10T01:19:19.385Z,6.00
2018-12-10T01:20:21.886Z,6.00
2018-12-10T01:21:24.414Z,6.00
2018-12-10T01:22:27.041Z,6.00
2018-12-10T01:23:29.574Z,6.00
2018-12-10T01:24:32.077Z,6.00
2018-12-10T01:25:34.581Z,6.00
2018-12-10T01:26:37.114Z,5.90
2018-12-10T01:27:39.652Z,6.00
2018-12-10T01:28:42.153Z,5.90
2018-12-10T01:29:44.712Z,6.00
2018-12-10T01:30:47.298Z,6.00
2018-12-10T01:31:49.797Z,6.00
2018-12-10T01:32:52.333Z,5.90
2018-12-10T01:33:54.829Z,5.90
2018-12-10T01:34:57.334Z,5.90
2018-12-10T01:35:59.875Z,5.90
2018-12-10T01:37:02.377Z,5.80
2018-12-10T01:38:04.875Z,5.80
2018-12-10T01:39:07.380Z,5.70
2018-12-10T01:40:09.913Z,5.70
2018-12-10T01:41:12.413Z,5.70
2018-12-10T01:42:14.953Z,5.70
2018-12-10T01:43:17.458Z,5.70
2018-12-10T01:44:19.965Z,5.70
2018-12-10T01:45:22.471Z,5.70
2018-12-10T01:46:24.969Z,5.60
2018-12-10T01:47:27.505Z,5.70
2018-12-10T01:48:30.005Z,5.70
2018-12-10T01:49:32.512Z,5.70
2018-12-10T01:50:35.120Z,5.70
2018-12-10T01:51:37.693Z,5.70
2018-12-10T01:52:40.232Z,5.70
2018-12-10T01:53:42.795Z,5.70
2018-12-10T01:54:45.329Z,5.70
2018-12-10T01:55:47.840Z,5.70
2018-12-10T01:56:50.373Z,5.70
2018-12-10T01:57:52.874Z,5.70
2018-12-10T01:58:55.421Z,5.70
2018-12-10T01:59:57.917Z,5.70
2018-12-10T02:01:00.415Z,5.70
2018-12-10T02:02:03.336Z,5.70
2018-12-10T02:03:05.842Z,5.70
2018-12-10T02:04:08.386Z,5.70
2018-12-10T02:05:10.899Z,5.70
2018-12-10T02:06:13.404Z,5.70
2018-12-10T02:07:15.942Z,5.70
2018-12-10T02:08:18.450Z,5.60
2018-12-10T02:09:20.949Z,5.70
2018-12-10T02:10:23.449Z,5.70
2018-12-10T02:11:25.951Z,5.60
2018-12-10T02:12:28.498Z,5.60
2018-12-10T02:13:31.004Z,5.60
2018-12-10T02:14:33.545Z,5.60
2018-12-10T02:15:36.050Z,5.60
2018-12-10T02:16:38.579Z,5.50
2018-12-10T02:17:41.125Z,5.50
2018-12-10T02:18:43.616Z,5.40
2018-12-10T02:19:46.118Z,5.40
2018-12-10T02:20:48.657Z,5.40
2018-12-10T02:21:51.209Z,5.40
2018-12-10T02:22:53.726Z,5.40
2018-12-10T02:23:56.272Z,5.40
2018-12-10T02:24:58.777Z,5.40
2018-12-10T02:26:01.314Z,5.40
2018-12-10T02:27:03.825Z,5.40
2018-12-10T02:28:06.321Z,5.40
2018-12-10T02:29:13.345Z,5.40
2018-12-10T02:30:15.846Z,5.40
2018-12-10T02:31:18.355Z,5.40
2018-12-10T02:32:20.853Z,5.40
2018-12-10T02:33:23.361Z,5.40
2018-12-10T02:34:25.937Z,5.40
2018-12-10T02:35:28.442Z,5.40
2018-12-10T02:36:30.990Z,5.40
2018-12-10T02:37:33.530Z,5.40
2018-12-10T02:38:36.030Z,5.40
2018-12-10T02:39:38.550Z,5.40
2018-12-10T02:40:41.098Z,5.40
2018-12-10T02:41:43.738Z,5.40
2018-12-10T02:42:46.329Z,5.40
2018-12-10T02:43:48.889Z,5.40
2018-12-10T02:44:51.389Z,5.40
2018-12-10T02:45:53.917Z,5.40
2018-12-10T02:46:56.418Z,5.40
2018-12-10T02:47:59.007Z,5.40
2018-12-10T02:49:01.611Z,5.40
2018-12-10T02:50:05.363Z,5.40
2018-12-10T02:51:07.867Z,5.40
2018-12-10T02:52:10.413Z,5.40
2018-12-10T02:53:12.921Z,5.40
2018-12-10T02:54:15.459Z,5.40
2018-12-10T02:55:17.961Z,5.40
2018-12-10T02:56:20.467Z,5.40
2018-12-10T02:57:22.971Z,5.40
2018-12-10T02:58:25.477Z,5.40
2018-12-10T02:59:28.024Z,5.40
2018-12-10T03:00:30.525Z,5.40
2018-12-10T03:01:33.028Z,5.40
2018-12-10T03:02:35.529Z,5.40
2018-12-10T03:03:38.027Z,5.40
2018-12-10T03:04:40.559Z,5.40
2018-12-10T03:05:43.108Z,5.40
2018-12-10T03:06:45.664Z,5.40
2018-12-10T03:07:48.173Z,5.40
2018-12-10T03:08:50.721Z,5.40
2018-12-10T03:09:53.224Z,5.40
2018-12-10T03:10:55.732Z,5.40
2018-12-10T03:11:58.243Z,5.40
2018-12-10T03:13:00.749Z,5.40
2018-12-10T03:14:03.463Z,5.40
2018-12-10T03:15:06.071Z,5.40
2018-12-10T03:16:08.579Z,5.40
2018-12-10T03:17:11.078Z,5.40
2018-12-10T03:18:13.584Z,5.40
2018-12-10T03:19:16.122Z,5.40
2018-12-10T03:20:18.654Z,5.30
2018-12-10T03:21:21.163Z,5.40
2018-12-10T03:22:23.695Z,5.40
2018-12-10T03:23:26.202Z,5.40
2018-12-10T03:24:28.702Z,5.40
2018-12-10T03:25:31.218Z,5.40
2018-12-10T03:26:33.753Z,5.40
2018-12-10T03:27:36.255Z,5.40
2018-12-10T03:28:38.770Z,5.40
2018-12-10T03:29:41.276Z,5.30
2018-12-10T03:30:43.818Z,5.30
2018-12-10T03:31:46.319Z,5.40
2018-12-10T03:32:48.832Z,5.40
2018-12-10T03:33:51.428Z,5.30
2018-12-10T03:34:53.930Z,5.30
2018-12-10T03:35:56.438Z,5.30
2018-12-10T03:36:58.933Z,5.30
2018-12-10T03:38:01.434Z,5.30
2018-12-10T03:39:05.619Z,5.30
2018-12-10T03:40:08.128Z,5.30
2018-12-10T03:41:10.634Z,5.30
2018-12-10T03:42:13.145Z,5.30
2018-12-10T03:43:15.694Z,5.30
2018-12-10T03:44:18.194Z,5.30
2018-12-10T03:45:20.704Z,5.30
2018-12-10T03:46:23.201Z,5.30
2018-12-10T03:47:25.697Z,5.30
2018-12-10T03:48:28.249Z,5.30
2018-12-10T03:49:30.750Z,5.30
2018-12-10T03:50:33.250Z,5.30
2018-12-10T03:51:35.770Z,5.30
2018-12-10T03:52:38.278Z,5.30
2018-12-10T03:53:40.818Z,5.30
2018-12-10T03:54:43.442Z,5.30
2018-12-10T03:55:45.947Z,5.30
2018-12-10T03:56:48.450Z,5.30
2018-12-10T03:57:50.953Z,5.30
2018-12-10T03:58:53.494Z,5.30
2018-12-10T03:59:56.040Z,5.30
2018-12-10T04:00:58.545Z,5.30
2018-12-10T04:02:01.042Z,5.30
2018-12-10T04:03:03.597Z,5.30
2018-12-10T04:04:06.126Z,5.30
2018-12-10T04:05:08.682Z,5.30
2018-12-10T04:06:11.186Z,5.20
2018-12-10T04:07:13.686Z,5.20
2018-12-10T04:08:16.216Z,5.20
2018-12-10T04:09:18.753Z,5.20
2018-12-10T04:10:21.249Z,5.10
2018-12-10T04:11:23.781Z,5.10
2018-12-10T04:12:26.286Z,5.00
2018-12-10T04:13:28.793Z,4.80
2018-12-10T04:14:31.290Z,4.80
2018-12-10T04:15:33.794Z,4.80
2018-12-10T04:16:36.341Z,4.80
2018-12-10T04:17:38.839Z,4.80
2018-12-10T04:18:41.369Z,4.80
2018-12-10T04:19:43.873Z,4.80
2018-12-10T04:20:46.386Z,4.80
2018-12-10T04:21:48.894Z,4.80
2018-12-10T04:22:51.400Z,4.80
2018-12-10T04:23:53.950Z,4.80
2018-12-10T04:24:56.511Z,4.80
2018-12-10T04:25:59.022Z,4.90
2018-12-10T04:27:01.525Z,4.90
2018-12-10T04:28:04.083Z,4.90
2018-12-10T04:29:06.587Z,4.90
2018-12-10T04:30:09.164Z,4.90
2018-12-10T04:31:11.885Z,4.80
2018-12-10T04:32:14.385Z,4.80
2018-12-10T04:33:16.928Z,4.80
2018-12-10T04:34:19.433Z,4.80
2018-12-10T04:35:21.939Z,4.80
2018-12-10T04:36:24.445Z,4.80
2018-12-10T04:37:26.946Z,4.80
2018-12-10T04:38:29.489Z,4.80
2018-12-10T04:39:31.985Z,4.80
2018-12-10T04:40:34.545Z,4.80
2018-12-10T04:41:37.051Z,4.80
2018-12-10T04:42:39.599Z,4.80
2018-12-10T04:43:42.102Z,4.80
2018-12-10T04:44:44.605Z,4.80
2018-12-10T04:45:47.101Z,4.90
2018-12-10T04:46:49.654Z,4.80
2018-12-10T04:47:52.195Z,4.80
2018-12-10T04:48:54.688Z,4.80
2018-12-10T04:49:57.182Z,4.80
2018-12-10T04:50:59.741Z,4.80
2018-12-10T04:52:02.253Z,4.80
2018-12-10T04:53:04.758Z,4.70
2018-12-10T04:54:07.313Z,4.70
2018-12-10T04:55:09.833Z,4.60
2018-12-10T04:56:12.732Z,4.50
2018-12-10T04:57:15.237Z,4.40
2018-12-10T04:58:17.733Z,4.40
2018-12-10T04:59:20.273Z,4.20
2018-12-10T05:00:22.784Z,4.10
2018-12-10T05:01:25.289Z,4.10
2018-12-10T05:02:27.790Z,4.00
2018-12-10T05:03:30.329Z,4.00
2018-12-10T05:04:32.839Z,3.90
2018-12-10T05:05:35.343Z,3.90
2018-12-10T05:06:37.850Z,3.90
2018-12-10T05:07:40.385Z,3.90
2018-12-10T05:08:42.881Z,3.90
2018-12-10T05:09:45.417Z,3.90
2018-12-10T05:10:47.925Z,3.90
2018-12-10T05:11:50.425Z,3.90
2018-12-10T05:12:52.924Z,3.90
2018-12-10T05:13:55.438Z,3.90
2018-12-10T05:14:57.969Z,3.90
2018-12-10T05:16:00.517Z,3.90
2018-12-10T05:17:03.017Z,3.90
2018-12-10T05:18:05.569Z,3.90
2018-12-10T05:19:08.069Z,3.90
2018-12-10T05:20:10.569Z,3.90
2018-12-10T05:21:13.599Z,3.90
2018-12-10T05:22:16.351Z,3.80
2018-12-10T05:23:18.857Z,3.90
2018-12-10T05:24:21.357Z,3.90
2018-12-10T05:25:23.863Z,3.90
2018-12-10T05:26:26.409Z,4.00
2018-12-10T05:27:28.907Z,3.90
2018-12-10T05:28:31.403Z,3.80
2018-12-10T05:29:33.965Z,3.90
2018-12-10T05:30:36.473Z,3.80
2018-12-10T05:31:39.021Z,3.90
2018-12-10T05:32:41.522Z,3.90
2018-12-10T05:33:44.025Z,3.90
2018-12-10T05:34:46.521Z,4.00
2018-12-10T05:35:49.016Z,4.00
2018-12-10T05:36:51.548Z,4.00
2018-12-10T05:37:54.066Z,4.10
2018-12-10T05:38:56.564Z,4.10
2018-12-10T05:39:59.067Z,4.10
2018-12-10T05:41:01.617Z,4.20
2018-12-10T05:42:04.177Z,4.20
2018-12-10T05:43:06.733Z,4.10
2018-12-10T05:44:09.235Z,4.10
2018-12-10T05:45:11.741Z,4.20
2018-12-10T05:46:14.289Z,4.20
2018-12-10T05:47:16.793Z,4.20
2018-12-10T05:48:19.325Z,4.30
2018-12-10T05:49:21.830Z,4.30
2018-12-10T05:50:24.330Z,4.30
2018-12-10T05:51:26.833Z,4.30
2018-12-10T05:52:29.343Z,4.30
2018-12-10T05:53:31.881Z,4.30
2018-12-10T05:54:34.380Z,4.40
2018-12-10T05:55:36.883Z,4.40
2018-12-10T05:56:39.397Z,4.40
2018-12-10T05:57:41.951Z,4.50
2018-12-10T05:58:44.509Z,4.50
2018-12-10T05:59:47.009Z,4.60
2018-12-10T06:00:49.561Z,4.60
2018-12-10T06:01:52.070Z,4.60
2018-12-10T06:02:54.607Z,4.60
2018-12-10T06:03:57.105Z,4.60
2018-12-10T06:04:59.610Z,4.60
2018-12-10T06:06:02.122Z,4.60
2018-12-10T06:07:04.633Z,4.60
2018-12-10T06:08:07.167Z,4.70
2018-12-10T06:09:09.733Z,4.70
2018-12-10T06:10:12.585Z,4.70
2018-12-10T06:11:15.095Z,4.70
2018-12-10T06:12:17.598Z,4.70
2018-12-10T06:13:20.137Z,4.70
2018-12-10T06:14:22.648Z,4.70
2018-12-10T06:15:25.153Z,4.70
2018-12-10T06:16:27.702Z,4.70
2018-12-10T06:17:30.198Z,4.80
2018-12-10T06:18:32.725Z,4.80
2018-12-10T06:19:35.217Z,4.80
2018-12-10T06:20:37.725Z,4.80
2018-12-10T06:21:40.260Z,4.90
2018-12-10T06:22:42.761Z,4.90
2018-12-10T06:23:45.261Z,4.80
2018-12-10T06:24:47.801Z,4.80
2018-12-10T06:25:50.311Z,4.80
2018-12-10T06:26:52.843Z,4.80
2018-12-10T06:27:55.357Z,4.80
2018-12-10T06:28:57.888Z,4.80
2018-12-10T06:30:00.421Z,4.80
2018-12-10T06:31:02.922Z,4.90
2018-12-10T06:32:05.433Z,4.90
2018-12-10T06:33:07.957Z,4.90
2018-12-10T06:34:10.506Z,4.90
2018-12-10T06:35:13.014Z,4.90
2018-12-10T06:36:15.525Z,4.90
2018-12-10T06:37:18.025Z,4.90
2018-12-10T06:38:20.554Z,4.90
2018-12-10T06:39:23.090Z,4.90
2018-12-10T06:40:25.606Z,4.80
2018-12-10T06:41:28.144Z,4.80
2018-12-10T06:42:30.681Z,4.80
2018-12-10T06:43:33.177Z,4.80
2018-12-10T06:44:35.678Z,4.80
2018-12-10T06:45:38.177Z,4.70
2018-12-10T06:46:40.707Z,4.70
2018-12-10T06:47:43.297Z,4.60
2018-12-10T06:48:45.797Z,4.60
2018-12-10T06:49:48.297Z,4.60
2018-12-10T06:50:50.793Z,4.50
2018-12-10T06:51:53.325Z,4.40
2018-12-10T06:52:55.825Z,4.50
2018-12-10T06:53:58.357Z,4.40
2018-12-10T06:55:01.606Z,4.30
2018-12-10T06:56:04.431Z,4.40
2018-12-10T06:57:07.021Z,4.40
2018-12-10T06:58:09.557Z,4.40
2018-12-10T06:59:12.057Z,4.40
2018-12-10T07:00:14.667Z,4.40
2018-12-10T07:01:17.169Z,4.40
2018-12-10T07:02:19.709Z,4.40
2018-12-10T07:03:22.211Z,4.30
2018-12-10T07:04:24.725Z,4.30
2018-12-10T07:05:27.229Z,4.20
2018-12-10T07:06:29.742Z,4.20
2018-12-10T07:07:32.289Z,4.10
2018-12-10T07:08:34.793Z,4.10
2018-12-10T07:09:37.291Z,4.10
2018-12-10T07:10:39.829Z,4.20
2018-12-10T07:11:42.341Z,4.10
2018-12-10T07:12:44.890Z,4.10
2018-12-10T07:13:47.398Z,4.10
2018-12-10T07:14:49.892Z,4.10
2018-12-10T07:15:52.405Z,4.10
2018-12-10T07:16:54.907Z,4.10
2018-12-10T07:17:57.533Z,4.10
2018-12-10T07:19:00.034Z,4.10
2018-12-10T07:20:02.843Z,4.20
2018-12-10T07:21:05.393Z,4.20
2018-12-10T07:22:07.893Z,4.20
2018-12-10T07:23:10.431Z,4.20
2018-12-10T07:24:12.973Z,4.20
2018-12-10T07:25:15.473Z,4.20
2018-12-10T07:26:17.977Z,4.20
2018-12-10T07:27:20.481Z,4.20
2018-12-10T07:28:22.980Z,4.20
2018-12-10T07:29:25.525Z,4.30
2018-12-10T07:30:28.026Z,4.30
2018-12-10T07:31:30.523Z,4.30
2018-12-10T07:32:33.023Z,4.30
2018-12-10T07:33:35.521Z,4.30
2018-12-10T07:34:38.065Z,4.30
2018-12-10T07:35:40.567Z,4.30
2018-12-10T07:36:43.061Z,4.30
2018-12-10T07:37:45.563Z,4.40
2018-12-10T07:38:48.068Z,4.30
2018-12-10T07:39:50.618Z,4.30
2018-12-10T07:40:53.133Z,4.40
2018-12-10T07:41:55.631Z,4.40
2018-12-10T07:42:58.139Z,4.40
2018-12-10T07:44:00.634Z,4.40
2018-12-10T07:45:03.517Z,4.50
2018-12-10T07:46:06.107Z,4.50
2018-12-10T07:47:08.610Z,4.50
2018-12-10T07:48:11.110Z,4.50
2018-12-10T07:49:13.665Z,4.50
2018-12-10T07:50:16.157Z,4.50
2018-12-10T07:51:18.688Z,4.50
2018-12-10T07:52:21.199Z,4.50
2018-12-10T07:53:23.702Z,4.50
2018-12-10T07:54:26.197Z,4.60
2018-12-10T07:55:28.697Z,4.50
2018-12-10T07:56:31.231Z,4.50
2018-12-10T07:57:33.737Z,4.50
2018-12-10T07:58:36.249Z,4.50
2018-12-10T07:59:38.769Z,4.50
2018-12-10T08:00:41.265Z,4.60
2018-12-10T08:01:43.818Z,4.60
2018-12-10T08:02:46.319Z,4.60
2018-12-10T08:03:48.826Z,4.70
2018-12-10T08:04:51.325Z,4.70
2018-12-10T08:05:53.886Z,4.70
2018-12-10T08:06:56.413Z,4.70
2018-12-10T08:07:58.918Z,4.70
2018-12-10T08:09:01.421Z,4.70
2018-12-10T08:10:04.971Z,4.70
2018-12-10T08:11:07.469Z,4.60
2018-12-10T08:12:10.070Z,4.70
2018-12-10T08:13:12.565Z,4.70
2018-12-10T08:14:15.102Z,4.70
2018-12-10T08:15:17.609Z,4.70
2018-12-10T08:16:20.925Z,4.70
2018-12-10T08:17:23.453Z,4.70
2018-12-10T08:18:25.958Z,4.70
2018-12-10T08:19:28.465Z,4.70
2018-12-10T08:20:30.997Z,4.70
2018-12-10T08:21:33.506Z,4.80
2018-12-10T08:22:36.051Z,4.70
2018-12-10T08:23:38.553Z,4.70
2018-12-10T08:24:41.089Z,4.80
2018-12-10T08:25:43.633Z,4.70
2018-12-10T08:26:46.130Z,4.80
2018-12-10T08:27:48.625Z,4.70
2018-12-10T08:28:58.494Z,4.80
2018-12-10T08:29:55.653Z,4.70
2018-12-10T08:30:58.196Z,4.80
2018-12-10T08:32:00.901Z,4.80
2018-12-10T08:33:03.485Z,4.80
2018-12-10T08:34:06.148Z,4.80
2018-12-10T08:35:08.740Z,4.90
2018-12-10T08:36:11.265Z,4.80
2018-12-10T08:37:13.769Z,4.80
2018-12-10T08:38:16.305Z,4.80
2018-12-10T08:39:18.806Z,4.80
2018-12-10T08:40:21.414Z,4.90
2018-12-10T08:41:24.006Z,4.80
2018-12-10T08:42:26.517Z,4.90
2018-12-10T08:43:29.019Z,4.90
2018-12-10T08:44:31.553Z,5.00
2018-12-10T08:45:34.145Z,5.00
2018-12-10T08:46:36.690Z,5.00
2018-12-10T08:47:39.201Z,5.00
2018-12-10T08:48:41.757Z,5.10
2018-12-10T08:49:44.264Z,5.10
2018-12-10T08:50:47.104Z,5.00
2018-12-10T08:51:49.883Z,5.00
2018-12-10T08:52:52.393Z,5.00
2018-12-10T08:53:54.890Z,5.00
2018-12-10T08:54:57.395Z,5.00
2018-12-10T08:55:59.953Z,5.00
2018-12-10T08:57:02.560Z,5.10
2018-12-10T08:58:05.130Z,5.00
2018-12-10T08:59:07.633Z,4.90
2018-12-10T09:00:10.245Z,4.90
2018-12-10T09:01:12.803Z,4.90
2018-12-10T09:02:15.337Z,4.90
2018-12-10T09:03:17.836Z,4.90
2018-12-10T09:04:20.330Z,4.90
2018-12-10T09:05:22.880Z,4.90
2018-12-10T09:06:25.434Z,4.90
2018-12-10T09:07:27.989Z,5.00
2018-12-10T09:08:31.142Z,4.90
2018-12-10T09:09:33.706Z,4.90
2018-12-10T09:10:36.204Z,4.90
2018-12-10T09:11:38.801Z,5.00
2018-12-10T09:12:46.948Z,4.90
2018-12-10T09:13:45.954Z,5.00
2018-12-10T09:14:48.557Z,5.00
2018-12-10T09:15:51.114Z,5.00
2018-12-10T09:16:53.690Z,5.00
2018-12-10T09:17:56.278Z,5.00
2018-12-10T09:18:58.781Z,4.90
2018-12-10T09:20:01.286Z,4.90
2018-12-10T09:21:03.925Z,5.00
2018-12-10T09:22:06.491Z,5.00
2018-12-10T09:23:09.033Z,5.00
2018-12-10T09:24:11.539Z,5.00
2018-12-10T09:25:14.037Z,5.00
2018-12-10T09:26:16.537Z,5.10
2018-12-10T09:27:19.037Z,5.10
2018-12-10T09:28:21.581Z,5.10
2018-12-10T09:29:24.176Z,5.10
2018-12-10T09:30:26.757Z,5.20
2018-12-10T09:31:29.257Z,5.20
2018-12-10T09:32:31.794Z,5.20
2018-12-10T09:33:34.331Z,5.30
2018-12-10T09:34:36.829Z,5.30
2018-12-10T09:35:39.341Z,5.40
2018-12-10T09:36:41.848Z,5.40
2018-12-10T09:37:44.345Z,5.40
2018-12-10T09:38:47.011Z,5.40
2018-12-10T09:39:49.625Z,5.30
2018-12-10T09:40:52.126Z,5.30
2018-12-10T09:41:54.673Z,5.40
2018-12-10T09:42:57.181Z,5.30
2018-12-10T09:43:59.720Z,5.40
2018-12-10T09:45:02.295Z,5.40
2018-12-10T09:46:04.801Z,5.30
2018-12-10T09:47:07.310Z,5.30
2018-12-10T09:48:09.826Z,5.40
2018-12-10T09:49:12.365Z,5.40
2018-12-10T09:50:14.862Z,5.40
2018-12-10T09:51:17.393Z,5.30
2018-12-10T09:52:19.925Z,5.30
2018-12-10T09:53:22.422Z,5.30
2018-12-10T09:54:24.925Z,5.30
2018-12-10T09:55:27.471Z,5.20
2018-12-10T09:56:30.033Z,5.30
2018-12-10T09:57:32.546Z,5.20
2018-12-10T09:58:35.058Z,5.20
2018-12-10T09:59:37.653Z,5.20
2018-12-10T10:00:40.159Z,5.20
2018-12-10T10:01:42.672Z,5.30
2018-12-10T10:02:45.273Z,5.30
2018-12-10T10:03:47.925Z,5.30
2018-12-10T10:04:50.465Z,5.30
2018-12-10T10:05:52.973Z,5.30
2018-12-10T10:06:55.475Z,5.30
2018-12-10T10:07:57.978Z,5.40
2018-12-10T10:09:00.525Z,5.40
2018-12-10T10:10:03.537Z,5.50
2018-12-10T10:11:06.041Z,5.50
2018-12-10T10:12:08.557Z,5.60
2018-12-10T10:13:11.073Z,5.60
2018-12-10T10:14:13.670Z,5.80
2018-12-10T10:15:16.177Z,5.90
2018-12-10T10:16:18.682Z,6.00
2018-12-10T10:17:21.282Z,6.00
2018-12-10T10:18:23.822Z,6.10
2018-12-10T10:19:26.330Z,6.00
2018-12-10T10:20:28.869Z,6.00
2018-12-10T10:21:31.377Z,6.00
2018-12-10T10:22:33.878Z,6.10
2018-12-10T10:23:36.372Z,6.10
2018-12-10T10:24:38.875Z,6.10
2018-12-10T10:25:41.409Z,6.20
2018-12-10T10:26:43.942Z,6.10
2018-12-10T10:27:46.439Z,6.10
2018-12-10T10:28:48.973Z,6.10
2018-12-10T10:29:51.479Z,6.00
2018-12-10T10:30:54.014Z,6.10
2018-12-10T10:31:56.521Z,6.10
2018-12-10T10:32:59.021Z,6.20
2018-12-10T10:34:01.533Z,6.40
2018-12-10T10:35:04.341Z,6.60
2018-12-10T10:36:06.882Z,6.70
2018-12-10T10:37:09.385Z,6.70
2018-12-10T10:38:11.890Z,6.70
2018-12-10T10:39:14.425Z,6.60
2018-12-10T10:40:16.922Z,6.50
2018-12-10T10:41:19.423Z,6.40
2018-12-10T10:42:22.013Z,6.30
2018-12-10T10:43:24.505Z,6.20
2018-12-10T10:44:27.014Z,6.10
2018-12-10T10:45:34.723Z,6.00
2018-12-10T10:46:34.089Z,6.00
2018-12-10T10:47:36.669Z,6.10
2018-12-10T10:48:39.171Z,6.30
2018-12-10T10:49:41.668Z,6.50
2018-12-10T10:50:44.201Z,6.50
2018-12-10T10:51:46.697Z,6.50
2018-12-10T10:52:49.201Z,6.30
2018-12-10T10:53:51.706Z,6.20
2018-12-10T10:54:54.217Z,6.10
2018-12-10T10:55:56.755Z,6.10
2018-12-10T10:56:59.285Z,6.00
2018-12-10T10:58:01.777Z,6.00
2018-12-10T10:59:04.327Z,6.00
2018-12-10T11:00:12.077Z,6.10
2018-12-10T11:01:20.313Z,6.10
2018-12-10T11:02:28.530Z,6.00
2018-12-10T11:03:36.289Z,6.10
2018-12-10T11:04:38.817Z,6.30
2018-12-10T11:05:41.326Z,6.30
2018-12-10T11:06:43.887Z,6.30
2018-12-10T11:07:46.422Z,6.30
2018-12-10T11:08:48.925Z,6.20
2018-12-10T11:09:51.422Z,6.10
2018-12-10T11:10:53.922Z,6.00
2018-12-10T11:11:56.471Z,5.90
2018-12-10T11:12:58.999Z,5.80
2018-12-10T11:14:01.524Z,5.90
2018-12-10T11:15:04.537Z,5.90
2018-12-10T11:16:07.040Z,5.90
2018-12-10T11:17:09.545Z,5.80
2018-12-10T11:18:12.100Z,5.80
2018-12-10T11:19:14.606Z,5.70
2018-12-10T11:20:17.115Z,5.70
2018-12-10T11:21:19.661Z,5.60
2018-12-10T11:22:22.163Z,5.70
2018-12-10T11:23:24.697Z,5.70
2018-12-10T11:24:27.205Z,5.60
2018-12-10T11:25:29.761Z,5.70
2018-12-10T11:26:32.372Z,5.70
2018-12-10T11:27:34.873Z,5.70
2018-12-10T11:28:37.398Z,5.70
2018-12-10T11:29:39.905Z,5.70
2018-12-10T11:30:42.496Z,5.80
2018-12-10T11:31:45.069Z,5.80
2018-12-10T11:32:47.569Z,5.70
2018-12-10T11:33:50.065Z,5.70
2018-12-10T11:34:52.565Z,5.70
2018-12-10T11:35:55.095Z,5.70
2018-12-10T11:36:57.598Z,5.70
2018-12-10T11:38:00.101Z,5.60
2018-12-10T11:39:02.959Z,5.50
2018-12-10T11:40:05.747Z,5.40
2018-12-10T11:41:08.293Z,5.40
2018-12-10T11:42:10.795Z,5.30
2018-12-10T11:43:13.338Z,5.30
2018-12-10T11:44:15.877Z,5.20
2018-12-10T11:45:18.381Z,5.30
2018-12-10T11:46:21.242Z,5.20
2018-12-10T11:47:23.790Z,5.20
2018-12-10T11:48:26.290Z,5.30
2018-12-10T11:49:28.825Z,5.30
2018-12-10T11:50:31.342Z,5.40
2018-12-10T11:51:33.850Z,5.30
2018-12-10T11:52:36.353Z,5.40
2018-12-10T11:53:43.703Z,5.40
2018-12-10T11:54:46.241Z,5.30
2018-12-10T11:55:48.745Z,5.30
2018-12-10T11:56:51.245Z,5.30
2018-12-10T11:57:53.797Z,5.20
2018-12-10T11:58:56.335Z,5.10
2018-12-10T11:59:58.846Z,5.20
2018-12-10T12:01:01.398Z,5.10
2018-12-10T12:02:03.908Z,5.10
2018-12-10T12:03:06.445Z,5.00
2018-12-10T12:04:08.941Z,5.10
2018-12-10T12:05:11.505Z,5.10
2018-12-10T12:06:14.034Z,5.10
2018-12-10T12:07:16.531Z,5.10
2018-12-10T12:08:19.073Z,5.10
2018-12-10T12:09:21.569Z,5.20
2018-12-10T12:10:24.067Z,5.20
2018-12-10T12:11:26.600Z,5.30
2018-12-10T12:12:29.099Z,5.30
2018-12-10T12:13:31.639Z,5.30
2018-12-10T12:14:34.155Z,5.40
2018-12-10T12:15:36.710Z,5.40
2018-12-10T12:16:39.213Z,5.50
2018-12-10T12:17:41.762Z,5.60
2018-12-10T12:18:44.341Z,5.70
2018-12-10T12:19:47.110Z,5.70
2018-12-10T12:20:49.758Z,5.70
2018-12-10T12:21:52.457Z,5.70
2018-12-10T12:22:55.062Z,5.70
2018-12-10T12:23:57.566Z,5.70
2018-12-10T12:25:00.076Z,5.70
2018-12-10T12:26:02.573Z,5.70
2018-12-10T12:27:05.074Z,5.80
2018-12-10T12:28:07.654Z,6.00
2018-12-10T12:29:10.211Z,6.30
2018-12-10T12:30:12.762Z,6.30
2018-12-10T12:31:15.297Z,6.40
2018-12-10T12:32:17.801Z,6.30
2018-12-10T12:33:20.308Z,6.20
2018-12-10T12:34:22.837Z,6.00
2018-12-10T12:35:25.343Z,6.00
2018-12-10T12:36:27.894Z,5.90
2018-12-10T12:37:30.445Z,5.90
2018-12-10T12:38:32.948Z,5.80
2018-12-10T12:39:35.449Z,5.70
2018-12-10T12:40:37.958Z,5.70
2018-12-10T12:41:40.496Z,5.70
2018-12-10T12:42:43.005Z,5.70
2018-12-10T12:43:45.505Z,5.60
2018-12-10T12:44:48.057Z,5.60
2018-12-10T12:45:50.585Z,5.60
2018-12-10T12:46:53.090Z,5.60
2018-12-10T12:47:55.592Z,5.60
2018-12-10T12:48:58.134Z,5.60
2018-12-10T12:50:00.636Z,5.60
2018-12-10T12:51:03.180Z,5.60
2018-12-10T12:52:05.695Z,5.60
2018-12-10T12:53:08.203Z,5.60
2018-12-10T12:54:10.789Z,5.60
2018-12-10T12:55:13.290Z,5.60
2018-12-10T12:56:15.798Z,5.60
2018-12-10T12:57:18.303Z,5.60
2018-12-10T12:58:20.836Z,5.60
2018-12-10T12:59:23.343Z,5.60
2018-12-10T13:00:27.286Z,5.60
2018-12-10T13:01:30.233Z,5.50
2018-12-10T13:02:32.730Z,5.50
2018-12-10T13:03:35.234Z,5.50
2018-12-10T13:04:37.740Z,5.60
2018-12-10T13:05:40.280Z,5.60
2018-12-10T13:06:42.794Z,5.60
2018-12-10T13:07:45.293Z,5.60
2018-12-10T13:08:47.865Z,5.60
2018-12-10T13:09:50.484Z,5.70
2018-12-10T13:10:53.032Z,5.70
2018-12-10T13:11:55.601Z,5.70
2018-12-10T13:12:58.101Z,5.70
2018-12-10T13:14:00.609Z,5.70
2018-12-10T13:15:03.514Z,5.70
2018-12-10T13:16:06.060Z,5.70
2018-12-10T13:17:08.565Z,5.70
2018-12-10T13:18:11.076Z,5.70
2018-12-10T13:19:13.583Z,5.60
2018-12-10T13:20:16.117Z,5.60
2018-12-10T13:21:18.673Z,5.70
2018-12-10T13:22:21.173Z,5.70
2018-12-10T13:23:23.670Z,5.70
2018-12-10T13:24:26.209Z,5.80
2018-12-10T13:25:28.758Z,5.80
2018-12-10T13:26:31.297Z,5.70
2018-12-10T13:27:33.801Z,5.80
2018-12-10T13:28:36.299Z,5.80
2018-12-10T13:29:38.838Z,5.80
2018-12-10T13:30:41.351Z,5.80
2018-12-10T13:31:43.857Z,5.80
2018-12-10T13:32:46.362Z,5.90
2018-12-10T13:33:48.861Z,5.90
2018-12-10T13:34:51.398Z,5.90
2018-12-10T13:35:53.893Z,6.00
2018-12-10T13:36:56.393Z,6.20
2018-12-10T13:37:58.929Z,6.20
2018-12-10T13:39:01.430Z,6.20
2018-12-10T13:40:05.689Z,6.20
2018-12-10T13:41:08.277Z,6.20
2018-12-10T13:42:10.778Z,6.10
2018-12-10T13:43:13.274Z,6.00
2018-12-10T13:44:15.773Z,6.00
2018-12-10T13:45:18.285Z,5.90
2018-12-10T13:46:21.410Z,5.80
2018-12-10T13:47:23.957Z,5.80
2018-12-10T13:48:26.463Z,5.80
2018-12-10T13:49:28.969Z,5.70
2018-12-10T13:50:31.466Z,5.70
2018-12-10T13:51:34.009Z,5.70
2018-12-10T13:52:36.509Z,5.60
2018-12-10T13:53:39.010Z,5.60